createdAt,value
2019-03-25T00:01:26.001Z,13.10
2019-03-25T00:03:56.421Z,13.06
2019-03-25T00:06:26.632Z,13.04
2019-03-25T00:09:04.945Z,13.18
2019-03-25T00:11:28.588Z,13.02
2019-03-25T00:13:58.691Z,12.88
2019-03-25T00:16:28.893Z,12.89
2019-03-25T00:18:59.015Z,12.93
2019-03-25T00:21:29.153Z,12.55
2019-03-25T00:23:59.287Z,12.59
2019-03-25T00:26:29.503Z,12.37
2019-03-25T00:28:59.619Z,12.20
2019-03-25T00:31:29.824Z,12.37
2019-03-25T00:33:59.943Z,12.46
2019-03-25T00:36:29.975Z,12.37
2019-03-25T00:39:00.170Z,12.42
2019-03-25T00:41:30.304Z,12.23
2019-03-25T00:44:00.359Z,12.28
2019-03-25T00:46:30.495Z,12.39
2019-03-25T00:49:00.602Z,12.50
2019-03-25T00:51:30.726Z,12.34
2019-03-25T00:54:00.837Z,12.40
2019-03-25T00:56:30.944Z,12.27
2019-03-25T00:59:01.054Z,12.16
2019-03-25T01:01:31.259Z,11.91
2019-03-25T01:04:01.380Z,11.91
2019-03-25T01:06:31.587Z,12.01
2019-03-25T01:09:01.629Z,12.25
2019-03-25T01:11:31.858Z,12.34
2019-03-25T01:14:01.981Z,12.01
2019-03-25T01:16:32.194Z,12.07
2019-03-25T01:19:02.302Z,12.34
2019-03-25T01:21:32.356Z,12.44
2019-03-25T01:24:02.471Z,12.41
2019-03-25T01:26:32.590Z,12.30
2019-03-25T01:29:02.718Z,12.49
2019-03-25T01:31:32.857Z,12.29
2019-03-25T01:34:03.171Z,12.42
2019-03-25T01:36:33.293Z,12.60
2019-03-25T01:39:04.677Z,12.62
2019-03-25T01:41:34.830Z,12.72
2019-03-25T01:44:04.967Z,13.01
2019-03-25T01:46:35.085Z,13.00
2019-03-25T01:49:05.379Z,12.97
2019-03-25T01:51:35.523Z,12.84
2019-03-25T01:54:05.715Z,12.68
2019-03-25T01:56:35.835Z,12.71
2019-03-25T01:59:05.940Z,12.39
2019-03-25T02:01:36.143Z,12.76
2019-03-25T02:04:06.268Z,12.63
2019-03-25T02:06:36.402Z,12.34
2019-03-25T02:09:07.945Z,12.65
2019-03-25T02:11:38.079Z,12.82
2019-03-25T02:14:08.281Z,12.34
2019-03-25T02:16:38.317Z,12.33
2019-03-25T02:19:08.541Z,11.97
2019-03-25T02:21:38.751Z,12.02
2019-03-25T02:24:08.894Z,12.23
2019-03-25T02:26:39.010Z,12.26
2019-03-25T02:29:09.126Z,11.96
2019-03-25T02:31:39.253Z,12.14
2019-03-25T02:34:09.823Z,12.21
2019-03-25T02:36:40.004Z,12.16
2019-03-25T02:39:10.188Z,12.13
2019-03-25T02:41:40.298Z,12.08
2019-03-25T02:44:10.325Z,12.11
2019-03-25T02:46:40.421Z,12.33
2019-03-25T02:49:10.530Z,12.23
2019-03-25T02:51:40.627Z,12.10
2019-03-25T02:54:10.732Z,11.93
2019-03-25T02:56:40.621Z,12.12
2019-03-25T02:59:10.512Z,12.10
2019-03-25T03:01:40.408Z,12.15
2019-03-25T03:04:10.311Z,12.17
2019-03-25T03:06:40.219Z,12.14
2019-03-25T03:09:10.689Z,12.13
2019-03-25T03:11:40.569Z,11.75
2019-03-25T03:14:10.541Z,11.83
2019-03-25T03:16:40.419Z,11.83
2019-03-25T03:19:10.308Z,11.78
2019-03-25T03:21:40.277Z,11.52
2019-03-25T03:24:10.249Z,11.67
2019-03-25T03:26:40.132Z,11.72
2019-03-25T03:29:10.027Z,11.84
2019-03-25T03:31:39.999Z,11.38
2019-03-25T03:34:09.819Z,11.64
2019-03-25T03:36:39.710Z,11.58
2019-03-25T03:39:09.583Z,11.59
2019-03-25T03:41:39.546Z,11.64
2019-03-25T03:44:09.447Z,11.10
2019-03-25T03:46:39.316Z,11.43
2019-03-25T03:49:09.211Z,11.31
2019-03-25T03:51:39.094Z,11.44
2019-03-25T03:54:09.070Z,10.85
2019-03-25T03:56:38.953Z,10.99
2019-03-25T03:59:09.200Z,11.02
2019-03-25T04:01:39.076Z,11.11
2019-03-25T04:04:08.965Z,10.85
2019-03-25T04:06:38.897Z,10.72
2019-03-25T04:09:08.852Z,11.22
2019-03-25T04:11:38.720Z,11.98
2019-03-25T04:14:08.700Z,12.60
2019-03-25T04:16:38.586Z,12.55
2019-03-25T04:19:08.597Z,12.61
2019-03-25T04:21:38.550Z,12.85
2019-03-25T04:24:08.445Z,12.99
2019-03-25T04:26:38.390Z,13.11
2019-03-25T04:29:08.363Z,13.18
2019-03-25T04:31:38.259Z,13.59
2019-03-25T04:34:08.178Z,13.67
2019-03-25T04:36:38.161Z,13.88
2019-03-25T04:39:08.476Z,13.84
2019-03-25T04:41:38.437Z,13.93
2019-03-25T04:44:08.320Z,13.95
2019-03-25T04:46:38.212Z,14.11
2019-03-25T04:49:08.105Z,13.68
2019-03-25T04:51:37.980Z,13.57
2019-03-25T04:54:07.871Z,13.59
2019-03-25T04:56:39.993Z,13.52
2019-03-25T04:59:09.466Z,13.55
2019-03-25T05:01:39.360Z,13.21
2019-03-25T05:04:09.328Z,12.72
2019-03-25T05:06:39.208Z,12.89
2019-03-25T05:09:09.108Z,12.62
2019-03-25T05:11:38.997Z,12.41
2019-03-25T05:14:08.966Z,12.05
2019-03-25T05:16:38.867Z,12.24
2019-03-25T05:19:08.754Z,12.34
2019-03-25T05:21:38.644Z,11.66
2019-03-25T05:24:08.546Z,11.57
2019-03-25T05:26:38.431Z,12.30
2019-03-25T05:29:08.320Z,12.23
2019-03-25T05:31:38.609Z,11.78
2019-03-25T05:34:08.509Z,12.21
2019-03-25T05:36:38.387Z,11.88
2019-03-25T05:39:09.306Z,11.37
2019-03-25T05:41:39.193Z,11.13
2019-03-25T05:44:09.102Z,11.26
2019-03-25T05:46:39.100Z,11.87
2019-03-25T05:49:08.974Z,11.90
2019-03-25T05:51:38.895Z,11.88
2019-03-25T05:54:08.797Z,11.98
2019-03-25T05:56:38.750Z,11.72
2019-03-25T05:59:08.609Z,11.52
2019-03-25T06:01:38.507Z,10.76
2019-03-25T06:04:08.400Z,11.11
2019-03-25T06:06:38.285Z,11.61
2019-03-25T06:09:08.248Z,11.59
2019-03-25T06:11:38.149Z,12.23
2019-03-25T06:14:08.086Z,12.44
2019-03-25T06:16:38.091Z,12.63
2019-03-25T06:19:07.967Z,12.70
2019-03-25T06:21:37.852Z,12.37
2019-03-25T06:24:08.723Z,11.86
2019-03-25T06:26:38.893Z,12.35
2019-03-25T06:29:08.878Z,12.63
2019-03-25T06:31:38.777Z,12.10
2019-03-25T06:34:09.064Z,12.33
2019-03-25T06:36:38.963Z,12.16
2019-03-25T06:39:09.021Z,11.58
2019-03-25T06:41:38.978Z,12.84
2019-03-25T06:44:08.865Z,13.25
2019-03-25T06:46:38.759Z,12.61
2019-03-25T06:49:08.695Z,11.66
2019-03-25T06:51:38.586Z,12.58
2019-03-25T06:54:08.529Z,13.40
2019-03-25T06:56:38.411Z,13.65
2019-03-25T06:59:08.571Z,13.86
2019-03-25T07:01:38.450Z,13.77
2019-03-25T07:04:08.376Z,13.49
2019-03-25T07:06:38.332Z,13.45
2019-03-25T07:09:08.547Z,13.02
2019-03-25T07:11:38.539Z,13.39
2019-03-25T07:14:08.399Z,13.06
2019-03-25T07:16:38.280Z,12.50
2019-03-25T07:19:08.277Z,13.13
2019-03-25T07:21:38.161Z,13.45
2019-03-25T07:24:08.142Z,13.19
2019-03-25T07:26:38.072Z,13.33
2019-03-25T07:29:07.964Z,13.48
2019-03-25T07:31:38.077Z,13.65
2019-03-25T07:34:07.961Z,13.20
2019-03-25T07:36:37.925Z,12.05
2019-03-25T07:39:08.224Z,13.17
2019-03-25T07:41:38.082Z,13.03
2019-03-25T07:44:08.842Z,12.43
2019-03-25T07:46:38.810Z,11.65
2019-03-25T07:49:08.695Z,10.80
2019-03-25T07:51:38.585Z,11.28
2019-03-25T07:54:08.510Z,11.57
2019-03-25T07:56:38.412Z,12.72
2019-03-25T07:59:08.315Z,13.17
2019-03-25T08:01:38.198Z,13.31
2019-03-25T08:04:08.078Z,11.82
2019-03-25T08:06:37.949Z,12.00
2019-03-25T08:09:08.900Z,12.28
2019-03-25T08:11:38.849Z,13.19
2019-03-25T08:14:08.716Z,13.03
2019-03-25T08:16:38.608Z,13.27
2019-03-25T08:19:08.494Z,12.49
2019-03-25T08:21:38.373Z,13.10
2019-03-25T08:24:08.234Z,13.17
2019-03-25T08:26:38.101Z,13.60
2019-03-25T08:29:07.980Z,13.75
2019-03-25T08:31:37.879Z,13.87
2019-03-25T08:34:07.766Z,13.73
2019-03-25T08:36:37.652Z,13.32
2019-03-25T08:39:08.137Z,13.38
2019-03-25T08:41:38.121Z,13.64
2019-03-25T08:44:08.024Z,13.40
2019-03-25T08:46:37.907Z,13.11
2019-03-25T08:49:08.095Z,13.13
2019-03-25T08:51:37.992Z,12.48
2019-03-25T08:54:07.868Z,13.64
2019-03-25T08:56:37.966Z,13.51
2019-03-25T08:59:07.849Z,13.26
2019-03-25T09:01:37.832Z,13.36
2019-03-25T09:04:07.736Z,13.78
2019-03-25T09:06:37.606Z,13.79
2019-03-25T09:09:08.429Z,13.91
2019-03-25T09:11:38.320Z,13.70
2019-03-25T09:14:08.257Z,13.34
2019-03-25T09:16:38.202Z,13.35
2019-03-25T09:19:08.166Z,13.40
2019-03-25T09:21:38.426Z,13.33
2019-03-25T09:24:08.380Z,13.25
2019-03-25T09:26:38.337Z,13.11
2019-03-25T09:29:08.209Z,13.15
2019-03-25T09:31:38.075Z,13.18
2019-03-25T09:34:07.960Z,13.06
2019-03-25T09:36:38.047Z,12.81
2019-03-25T09:39:08.683Z,13.32
2019-03-25T09:41:38.782Z,14.01
2019-03-25T09:44:08.999Z,13.92
2019-03-25T09:46:39.035Z,13.95
2019-03-25T09:49:09.485Z,13.81
2019-03-25T09:51:39.656Z,13.53
2019-03-25T09:54:09.757Z,13.42
2019-03-25T09:56:39.856Z,13.56
2019-03-25T09:59:09.982Z,13.71
2019-03-25T10:01:40.111Z,13.69
2019-03-25T10:04:10.349Z,13.93
2019-03-25T10:06:40.369Z,13.83
2019-03-25T10:09:12.509Z,13.00
2019-03-25T10:11:42.781Z,13.86
2019-03-25T10:14:12.890Z,13.75
2019-03-25T10:16:43.141Z,13.51
2019-03-25T10:19:13.248Z,13.69
2019-03-25T10:21:43.667Z,13.40
2019-03-25T10:24:13.746Z,13.40
2019-03-25T10:26:43.814Z,13.98
2019-03-25T10:29:13.972Z,13.76
2019-03-25T10:31:44.079Z,13.74
2019-03-25T10:34:14.185Z,13.44
2019-03-25T10:36:44.287Z,13.95
2019-03-25T10:39:14.509Z,13.62
2019-03-25T10:41:44.607Z,13.98
2019-03-25T10:44:14.753Z,13.65
2019-03-25T10:46:44.892Z,13.61
2019-03-25T10:49:16.226Z,13.82
2019-03-25T10:51:46.391Z,12.57
2019-03-25T10:54:16.451Z,12.69
2019-03-25T10:56:49.319Z,12.87
2019-03-25T10:59:18.486Z,13.41
2019-03-25T11:01:48.664Z,13.72
2019-03-25T11:04:18.804Z,13.92
2019-03-25T11:06:48.892Z,14.07
2019-03-25T11:09:19.017Z,14.01
2019-03-25T11:11:49.034Z,13.79
2019-03-25T11:14:19.051Z,13.92
2019-03-25T11:16:49.062Z,13.69
2019-03-25T11:19:19.075Z,14.10
2019-03-25T11:21:49.101Z,13.93
2019-03-25T11:24:19.211Z,14.20
2019-03-25T11:26:49.263Z,14.14
2019-03-25T11:29:19.514Z,14.28
2019-03-25T11:31:49.588Z,14.33
2019-03-25T11:34:19.765Z,14.50
2019-03-25T11:36:49.943Z,14.34
2019-03-25T11:39:20.106Z,14.27
2019-03-25T11:41:50.259Z,14.41
2019-03-25T11:44:20.625Z,13.92
2019-03-25T11:46:50.795Z,13.74
2019-03-25T11:49:20.927Z,13.80
2019-03-25T11:51:50.956Z,14.17
2019-03-25T11:54:20.995Z,14.24
2019-03-25T11:56:51.097Z,14.29
2019-03-25T11:59:21.236Z,14.31
2019-03-25T12:01:51.324Z,14.36
2019-03-25T12:04:21.314Z,14.42
2019-03-25T12:06:51.366Z,14.35
2019-03-25T12:09:21.399Z,14.33
2019-03-25T12:11:51.477Z,14.37
2019-03-25T12:14:21.514Z,14.38
2019-03-25T12:16:51.521Z,14.30
2019-03-25T12:19:21.693Z,14.17
2019-03-25T12:21:51.772Z,14.32
2019-03-25T12:24:21.865Z,14.32
2019-03-25T12:26:51.978Z,14.31
2019-03-25T12:29:30.214Z,14.26
2019-03-25T12:31:53.960Z,14.27
2019-03-25T12:34:24.174Z,14.26
2019-03-25T12:36:54.335Z,14.24
2019-03-25T12:39:24.484Z,14.24
2019-03-25T12:41:54.493Z,14.22
2019-03-25T12:44:24.528Z,14.26
2019-03-25T12:46:54.615Z,14.27
2019-03-25T12:49:24.716Z,14.24
2019-03-25T12:51:54.830Z,14.23
2019-03-25T12:54:24.837Z,14.25
2019-03-25T12:56:54.873Z,14.24
2019-03-25T12:59:24.929Z,14.23
2019-03-25T13:01:54.935Z,14.26
2019-03-25T13:04:25.050Z,14.28
2019-03-25T13:06:55.143Z,14.30
2019-03-25T13:09:25.177Z,14.27
2019-03-25T13:11:55.300Z,13.80
2019-03-25T13:14:25.394Z,13.96
2019-03-25T13:16:55.442Z,14.24
2019-03-25T13:19:25.478Z,15.26
2019-03-25T13:21:55.661Z,15.86
2019-03-25T13:24:25.792Z,15.65
2019-03-25T13:26:55.849Z,16.94
2019-03-25T13:29:26.334Z,16.47
2019-03-25T13:31:56.425Z,15.99
2019-03-25T13:34:26.564Z,16.74
2019-03-25T13:36:56.771Z,17.85
2019-03-25T13:39:26.871Z,17.47
2019-03-25T13:41:56.953Z,16.99
2019-03-25T13:44:27.068Z,16.86
2019-03-25T13:46:57.150Z,16.07
2019-03-25T13:49:27.165Z,15.82
2019-03-25T13:51:57.297Z,15.56
2019-03-25T13:54:27.397Z,15.40
2019-03-25T13:56:57.490Z,15.34
2019-03-25T13:59:27.668Z,15.24
2019-03-25T14:01:57.632Z,15.16
2019-03-25T14:04:27.740Z,15.08
2019-03-25T14:06:57.829Z,15.05
2019-03-25T14:09:28.013Z,15.02
2019-03-25T14:11:58.208Z,15.05
2019-03-25T14:14:28.221Z,15.10
2019-03-25T14:16:58.345Z,15.12
2019-03-25T14:19:29.416Z,15.12
2019-03-25T14:21:59.956Z,15.20
2019-03-25T14:24:30.039Z,15.24
2019-03-25T14:27:00.075Z,15.25
2019-03-25T14:29:30.167Z,15.36
2019-03-25T14:32:00.265Z,15.44
2019-03-25T14:34:30.365Z,15.37
2019-03-25T14:37:00.503Z,15.36
2019-03-25T14:39:30.590Z,15.32
2019-03-25T14:42:00.707Z,15.24
2019-03-25T14:44:30.806Z,15.12
2019-03-25T14:47:00.912Z,15.06
2019-03-25T14:49:31.004Z,14.96
2019-03-25T14:52:01.028Z,14.90
2019-03-25T14:54:31.145Z,14.78
2019-03-25T14:57:01.165Z,14.74
2019-03-25T14:59:31.412Z,14.78
2019-03-25T15:02:01.456Z,14.64
2019-03-25T15:04:31.543Z,14.04
2019-03-25T15:07:01.581Z,13.77
2019-03-25T15:09:31.693Z,12.54
2019-03-25T15:12:01.705Z,11.92
2019-03-25T15:14:33.456Z,12.27
2019-03-25T15:17:03.752Z,12.47
2019-03-25T15:19:33.841Z,12.67
2019-03-25T15:22:03.924Z,12.81
2019-03-25T15:24:34.097Z,13.13
2019-03-25T15:27:04.419Z,13.20
2019-03-25T15:29:34.518Z,13.10
2019-03-25T15:32:04.632Z,13.14
2019-03-25T15:34:34.740Z,13.30
2019-03-25T15:37:04.836Z,13.40
2019-03-25T15:39:35.028Z,13.24
2019-03-25T15:42:05.207Z,13.25
2019-03-25T15:44:35.399Z,13.43
2019-03-25T15:47:05.564Z,13.24
2019-03-25T15:49:35.573Z,12.83
2019-03-25T15:52:05.905Z,13.28
2019-03-25T15:54:36.024Z,13.37
2019-03-25T15:57:06.208Z,13.44
2019-03-25T15:59:36.304Z,13.62
2019-03-25T16:02:06.446Z,13.87
2019-03-25T16:04:36.448Z,13.93
2019-03-25T16:07:07.241Z,13.99
2019-03-25T16:09:37.435Z,14.01
2019-03-25T16:12:07.548Z,14.05
2019-03-25T16:14:37.638Z,14.07
2019-03-25T16:17:07.835Z,14.11
2019-03-25T16:19:37.917Z,14.19
2019-03-25T16:22:08.048Z,14.21
2019-03-25T16:24:38.142Z,14.27
2019-03-25T16:27:08.393Z,14.51
2019-03-25T16:29:38.388Z,14.47
2019-03-25T16:32:08.481Z,14.53
2019-03-25T16:34:38.626Z,14.53
2019-03-25T16:37:08.647Z,14.61
2019-03-25T16:39:38.641Z,14.60
2019-03-25T16:42:08.812Z,14.36
2019-03-25T16:44:38.818Z,14.10
2019-03-25T16:47:08.857Z,13.27
2019-03-25T16:49:38.972Z,13.20
2019-03-25T16:52:09.148Z,13.03
2019-03-25T16:54:39.248Z,12.52
2019-03-25T16:57:09.265Z,13.14
2019-03-25T16:59:40.632Z,13.66
2019-03-25T17:02:10.871Z,13.88
2019-03-25T17:04:41.039Z,14.02
2019-03-25T17:07:11.269Z,14.10
2019-03-25T17:09:41.482Z,14.13
2019-03-25T17:12:11.574Z,14.09
2019-03-25T17:14:41.706Z,14.10
2019-03-25T17:17:11.932Z,14.09
2019-03-25T17:19:42.121Z,14.05
2019-03-25T17:22:12.146Z,14.05
2019-03-25T17:24:42.162Z,14.06
2019-03-25T17:27:12.176Z,14.06
2019-03-25T17:29:42.209Z,14.04
2019-03-25T17:32:12.242Z,14.01
2019-03-25T17:34:42.291Z,13.98
2019-03-25T17:37:12.377Z,13.96
2019-03-25T17:39:42.543Z,13.92
2019-03-25T17:42:12.730Z,13.88
2019-03-25T17:44:42.764Z,13.85
2019-03-25T17:47:12.842Z,13.84
2019-03-25T17:49:42.947Z,13.85
2019-03-25T17:52:12.966Z,13.67
2019-03-25T17:54:42.985Z,13.72
2019-03-25T17:57:12.998Z,13.77
2019-03-25T17:59:43.066Z,13.69
2019-03-25T18:02:13.084Z,13.70
2019-03-25T18:04:43.262Z,13.54
2019-03-25T18:07:13.333Z,13.54
2019-03-25T18:09:43.414Z,13.46
2019-03-25T18:12:13.559Z,13.40
2019-03-25T18:14:43.604Z,12.97
2019-03-25T18:17:13.794Z,12.56
2019-03-25T18:19:43.795Z,12.93
2019-03-25T18:22:13.827Z,12.53
2019-03-25T18:24:43.971Z,12.80
2019-03-25T18:27:13.991Z,12.32
2019-03-25T18:29:44.007Z,12.66
2019-03-25T18:32:14.101Z,12.61
2019-03-25T18:34:44.171Z,12.92
2019-03-25T18:37:14.180Z,12.89
2019-03-25T18:39:44.201Z,12.71
2019-03-25T18:42:14.310Z,12.62
2019-03-25T18:44:44.422Z,12.38
2019-03-25T18:47:14.802Z,11.51
2019-03-25T18:49:44.907Z,11.62
2019-03-25T18:52:15.073Z,11.49
2019-03-25T18:54:45.231Z,11.22
2019-03-25T18:57:15.361Z,11.55
2019-03-25T18:59:45.459Z,10.93
2019-03-25T19:02:15.508Z,10.81
2019-03-25T19:04:45.584Z,10.75
2019-03-25T19:07:15.603Z,10.15
2019-03-25T19:09:45.858Z,9.85
2019-03-25T19:12:15.858Z,9.86
2019-03-25T19:14:45.960Z,9.17
2019-03-25T19:17:16.036Z,9.34
2019-03-25T19:19:46.255Z,9.38
2019-03-25T19:22:16.332Z,9.16
2019-03-25T19:24:46.502Z,8.83
2019-03-25T19:27:17.631Z,8.95
2019-03-25T19:29:47.937Z,9.19
2019-03-25T19:32:18.048Z,8.78
2019-03-25T19:34:49.969Z,8.60
2019-03-25T19:37:20.021Z,8.40
2019-03-25T19:39:50.541Z,8.51
2019-03-25T19:42:20.648Z,8.67
2019-03-25T19:44:50.747Z,8.64
2019-03-25T19:47:22.724Z,8.25
2019-03-25T19:49:52.921Z,8.31
2019-03-25T19:52:24.059Z,7.92
2019-03-25T19:54:54.125Z,8.14
2019-03-25T19:57:24.197Z,8.08
2019-03-25T19:59:54.163Z,8.04
2019-03-25T20:02:24.325Z,8.44
2019-03-25T20:04:54.293Z,8.30
2019-03-25T20:07:24.330Z,7.97
2019-03-25T20:09:54.427Z,7.97
2019-03-25T20:12:24.513Z,7.91
2019-03-25T20:14:54.675Z,8.07
2019-03-25T20:17:24.755Z,8.38
2019-03-25T20:19:54.858Z,8.85
2019-03-25T20:22:24.976Z,8.35
2019-03-25T20:24:54.974Z,8.36
2019-03-25T20:27:25.130Z,8.51
2019-03-25T20:29:55.365Z,8.68
2019-03-25T20:32:31.723Z,8.84
2019-03-25T20:34:57.225Z,8.81
2019-03-25T20:37:27.205Z,8.89
2019-03-25T20:39:57.201Z,9.24
2019-03-25T20:42:27.307Z,8.95
2019-03-25T20:44:57.344Z,9.01
2019-03-25T20:47:27.356Z,8.96
2019-03-25T20:49:57.484Z,8.92
2019-03-25T20:52:27.490Z,8.69
2019-03-25T20:54:57.545Z,8.66
2019-03-25T20:57:27.591Z,8.65
2019-03-25T20:59:57.636Z,8.43
2019-03-25T21:02:27.693Z,8.68
2019-03-25T21:04:57.844Z,8.66
2019-03-25T21:07:27.934Z,8.47
2019-03-25T21:09:57.937Z,8.66
2019-03-25T21:12:27.932Z,8.99
2019-03-25T21:14:58.036Z,8.82
2019-03-25T21:17:28.213Z,9.00
2019-03-25T21:19:58.291Z,9.43
2019-03-25T21:22:28.365Z,9.36
2019-03-25T21:24:58.376Z,9.03
2019-03-25T21:27:28.371Z,8.78
2019-03-25T21:29:58.333Z,9.15
2019-03-25T21:32:28.414Z,9.27
2019-03-25T21:34:58.553Z,9.03
2019-03-25T21:37:28.709Z,8.72
2019-03-25T21:39:58.715Z,9.20
2019-03-25T21:42:29.270Z,9.08
2019-03-25T21:44:59.432Z,8.69
2019-03-25T21:47:29.582Z,8.71
2019-03-25T21:49:59.574Z,8.55
2019-03-25T21:52:29.617Z,8.37
2019-03-25T21:54:59.658Z,8.20
2019-03-25T21:57:29.890Z,8.01
2019-03-25T21:59:59.863Z,8.18
2019-03-25T22:02:29.942Z,7.72
2019-03-25T22:05:00.295Z,8.16
2019-03-25T22:07:30.503Z,7.97
2019-03-25T22:10:00.512Z,7.82
2019-03-25T22:12:30.595Z,8.33
2019-03-25T22:15:00.680Z,8.40
2019-03-25T22:17:30.704Z,8.07
2019-03-25T22:20:00.736Z,9.23
2019-03-25T22:22:30.840Z,9.76
2019-03-25T22:25:00.965Z,10.28
2019-03-25T22:27:31.012Z,10.06
2019-03-25T22:30:01.085Z,9.69
2019-03-25T22:32:31.073Z,8.91
2019-03-25T22:35:01.119Z,8.46
2019-03-25T22:37:31.209Z,8.52
2019-03-25T22:40:01.215Z,9.20
2019-03-25T22:42:50.033Z,9.01
2019-03-25T22:45:29.194Z,8.81
2019-03-25T22:47:59.060Z,8.82
2019-03-25T22:50:30.374Z,9.24
2019-03-25T22:53:00.312Z,9.49
2019-03-25T22:55:30.398Z,9.17
2019-03-25T22:58:00.273Z,8.93
2019-03-25T23:00:44.794Z,9.19
2019-03-25T23:03:15.462Z,9.41
2019-03-25T23:05:45.532Z,9.28
2019-03-25T23:08:15.480Z,8.56
2019-03-25T23:10:45.459Z,8.63
2019-03-25T23:13:15.325Z,8.92
2019-03-25T23:15:45.209Z,9.28
2019-03-25T23:18:15.165Z,9.34
2019-03-25T23:20:45.045Z,9.49
2019-03-25T23:23:14.899Z,9.74
2019-03-25T23:25:44.778Z,9.80
2019-03-25T23:28:14.647Z,9.84
2019-03-25T23:30:44.542Z,10.25
2019-03-25T23:33:14.417Z,10.98
2019-03-25T23:35:44.376Z,10.70
2019-03-25T23:38:14.425Z,10.83
2019-03-25T23:40:44.305Z,10.81
2019-03-25T23:43:14.180Z,10.71
2019-03-25T23:45:44.067Z,10.23
2019-03-25T23:48:13.964Z,8.80
2019-03-25T23:50:43.842Z,9.52
2019-03-25T23:53:13.708Z,9.64
2019-03-25T23:55:43.624Z,9.03
2019-03-25T23:58:13.521Z,9.85
